Time;durP1;ratioP1;P1;durP2;ratioP2;P2;SDS_P1;SDS_P2;PMS_P1;PMS_P2;Temp;Humidity;BMP_temperature;BMP_pressure;BME280_temperature;BME280_humidity;BME280_pressure;Samples;Min_cycle;Max_cycle;Signal;HPM_P1;HPM_P2
2023/07/19 00:03:59;;;;;;;6.03;3.22;;;;;;;16.79;58.02;100197.78;10155711;29;20052;-73
2023/07/19 00:09:02;;;;;;;4.93;3.65;;;;;;;17.01;57.78;100201.66;10155669;29;20076;-73
2023/07/19 00:14:05;;;;;;;4.72;3.42;;;;;;;17.05;57.17;100188.59;10154636;29;20081;-73
2023/07/19 00:19:10;;;;;;;5.75;3.80;;;;;;;17.04;57.56;100189.63;10148883;29;20514;-73
2023/07/19 00:24:22;;;;;;;8.68;4.38;;;;;;;17.04;57.81;100187.75;10150948;29;20119;-73
2023/07/19 00:29:25;;;;;;;5.22;3.97;;;;;;;16.97;58.02;100189.44;10156344;29;20048;-73
2023/07/19 00:34:29;;;;;;;8.10;4.35;;;;;;;16.62;58.67;100176.22;10153002;29;20543;-74
2023/07/19 00:39:32;;;;;;;6.68;4.20;;;;;;;16.62;59.47;100182.53;10153223;29;20088;-73
2023/07/19 00:44:35;;;;;;;4.65;3.65;;;;;;;16.66;59.09;100181.16;10142791;29;20048;-73
2023/07/19 00:49:40;;;;;;;6.30;3.88;;;;;;;16.66;58.91;100181.16;10153749;29;20095;-73
2023/07/19 00:54:44;;;;;;;6.47;4.50;;;;;;;16.63;59.62;100177.94;10152287;29;20044;-73
2023/07/19 00:59:47;;;;;;;5.05;3.45;;;;;;;16.60;59.79;100165.56;10149940;29;20079;-73
2023/07/19 01:04:51;;;;;;;3.92;3.50;;;;;;;16.54;60.16;100174.38;10147917;29;20053;-73
2023/07/19 01:09:54;;;;;;;5.75;3.50;;;;;;;16.41;60.65;100172.16;10157323;29;20467;-73
2023/07/19 01:14:57;;;;;;;6.25;3.30;;;;;;;16.33;61.50;100166.72;10153705;29;20501;-72
2023/07/19 01:20:01;;;;;;;5.93;3.38;;;;;;;16.28;61.69;100163.66;10156904;29;20424;-73
2023/07/19 01:25:06;;;;;;;7.95;3.97;;;;;;;16.34;61.76;100174.66;10156656;29;20501;-73
2023/07/19 01:30:10;;;;;;;5.55;3.55;;;;;;;16.42;61.70;100163.00;10152750;29;20048;-72
2023/07/19 01:35:14;;;;;;;4.00;3.25;;;;;;;16.41;61.76;100160.47;10149424;29;20052;-73
2023/07/19 01:40:18;;;;;;;5.45;4.20;;;;;;;16.34;61.89;100160.28;10143219;29;20052;-73
2023/07/19 01:45:21;;;;;;;7.68;4.15;;;;;;;16.32;61.93;100151.50;10155236;29;20044;-73
2023/07/19 01:50:26;;;;;;;6.85;3.67;;;;;;;16.18;62.12;100143.97;10153173;29;20104;-73
2023/07/19 01:55:31;;;;;;;3.97;3.50;;;;;;;16.11;62.20;100139.22;10149797;29;20060;-73
2023/07/19 02:00:34;;;;;;;7.05;3.38;;;;;;;16.12;62.60;100130.06;10148805;29;20489;-73
2023/07/19 02:05:37;;;;;;;5.93;4.53;;;;;;;16.09;62.20;100124.97;10151708;29;20047;-73
2023/07/19 02:10:42;;;;;;;4.60;3.15;;;;;;;16.00;62.38;100119.72;10150482;29;20044;-73
2023/07/19 02:15:46;;;;;;;4.43;4.03;;;;;;;15.84;62.94;100120.53;10155124;29;20980;-73
2023/07/19 02:20:51;;;;;;;9.10;4.82;;;;;;;15.72;63.13;100109.16;10160587;29;20048;-73
2023/07/19 02:25:55;;;;;;;7.68;4.47;;;;;;;15.59;63.41;100106.06;10141821;29;20401;-73
2023/07/19 02:30:58;;;;;;;7.47;4.28;;;;;;;15.65;63.65;100091.88;10147418;29;20049;-73
2023/07/19 02:36:01;;;;;;;6.68;4.00;;;;;;;15.85;63.05;100093.28;10151221;29;20052;-73
2023/07/19 02:41:06;;;;;;;8.35;4.25;;;;;;;15.93;62.82;100090.59;10152281;29;20063;-73
2023/07/19 02:52:57;;;;;;;7.90;3.78;;;;;;;15.76;62.41;100086.13;10153186;29;20454;-73
2023/07/19 02:58:01;;;;;;;6.65;4.45;;;;;;;15.74;62.70;100081.91;10150659;29;20128;-73
2023/07/19 03:03:04;;;;;;;6.15;4.00;;;;;;;15.68;63.12;100076.13;10155906;29;20573;-73
2023/07/19 03:08:07;;;;;;;7.75;4.57;;;;;;;15.65;62.90;100084.59;10148609;29;20547;-73
2023/07/19 03:13:12;;;;;;;14.05;5.05;;;;;;;15.51;63.02;100079.81;10151366;29;20044;-73
2023/07/19 03:18:15;;;;;;;5.75;4.45;;;;;;;15.44;63.09;100074.22;10139763;29;20068;-73
2023/07/19 03:23:18;;;;;;;4.90;4.07;;;;;;;15.38;63.75;100077.56;10158171;29;20139;-73
2023/07/19 03:28:23;;;;;;;4.80;4.28;;;;;;;15.35;63.73;100071.63;10156682;29;20044;-73
2023/07/19 03:33:27;;;;;;;6.18;4.28;;;;;;;15.34;63.74;100075.31;10157465;29;20048;-73
2023/07/19 03:38:29;;;;;;;9.25;4.70;;;;;;;15.35;64.05;100071.63;10168212;29;20079;-73
2023/07/19 03:43:35;;;;;;;7.05;4.15;;;;;;;15.46;63.74;100061.34;10166707;29;20500;-73
2023/07/19 03:48:38;;;;;;;5.05;3.80;;;;;;;15.45;63.54;100065.06;10165730;29;20053;-73
2023/07/19 03:53:41;;;;;;;8.88;4.30;;;;;;;15.52;63.51;100067.13;10168220;29;20071;-73
2023/07/19 03:58:48;;;;;;;6.65;3.88;;;;;;;15.46;62.98;100065.91;10164922;29;20539;-73
2023/07/19 04:03:52;;;;;;;5.35;3.88;;;;;;;15.61;62.60;100080.53;10161368;29;20053;-73
2023/07/19 04:08:55;;;;;;;7.88;3.97;;;;;;;15.71;61.80;100080.38;10153911;29;20104;-73
2023/07/19 04:13:59;;;;;;;4.75;3.38;;;;;;;15.72;61.94;100083.94;10165015;29;20048;-73
2023/07/19 04:19:02;;;;;;;7.05;3.78;;;;;;;15.72;62.57;100084.78;10168380;29;20050;-73
2023/07/19 04:24:05;;;;;;;6.22;3.88;;;;;;;15.51;62.35;100085.22;10164761;29;20044;-72
2023/07/19 04:29:09;;;;;;;8.38;3.53;;;;;;;15.54;62.51;100089.47;10152392;29;20139;-73
2023/07/19 04:34:12;;;;;;;9.32;3.80;;;;;;;15.63;62.57;100074.94;10158515;29;20051;-73
2023/07/19 04:39:16;;;;;;;5.65;4.13;;;;;;;15.86;62.42;100083.31;10169049;29;20036;-73
2023/07/19 04:44:21;;;;;;;7.50;3.85;;;;;;;16.13;62.21;100072.16;10165092;29;20052;-73
2023/07/19 04:49:26;;;;;;;10.77;4.65;;;;;;;16.38;61.90;100082.22;10159380;29;20056;-73
2023/07/19 04:54:31;;;;;;;7.97;3.95;;;;;;;16.50;60.87;100076.25;10152182;29;20533;-73
2023/07/19 04:59:36;;;;;;;5.10;3.17;;;;;;;16.67;60.72;100089.78;10153589;29;20143;-73
2023/07/19 05:04:39;;;;;;;6.22;2.72;;;;;;;16.69;61.29;100091.31;10149918;29;20036;-73
2023/07/19 05:09:42;;;;;;;5.85;3.00;;;;;;;16.72;61.18;100087.41;10167182;29;20464;-73
2023/07/19 05:14:47;;;;;;;5.38;2.97;;;;;;;16.79;61.46;100083.84;10154292;29;20056;-73
2023/07/19 05:19:50;;;;;;;6.22;3.15;;;;;;;17.14;61.25;100086.34;10148117;29;20508;-73
2023/07/19 05:24:53;;;;;;;4.60;2.72;;;;;;;17.41;59.89;100075.03;10146627;29;20051;-73
2023/07/19 05:29:57;;;;;;;5.72;3.10;;;;;;;17.68;58.96;100075.59;10159661;29;20055;-73
2023/07/19 05:35:00;;;;;;;5.93;3.00;;;;;;;17.81;58.67;100078.56;10155245;29;20056;-73
2023/07/19 05:40:04;;;;;;;7.88;3.42;;;;;;;17.89;59.16;100080.41;10150897;29;20500;-73
2023/07/19 05:45:10;;;;;;;9.73;3.45;;;;;;;18.20;58.93;100088.53;10147549;29;20505;-73
2023/07/19 05:50:13;;;;;;;7.43;2.78;;;;;;;18.34;57.98;100079.56;10155654;29;20047;-72
2023/07/19 05:55:16;;;;;;;9.18;3.75;;;;;;;18.47;58.07;100081.69;10151028;29;20048;-73
2023/07/19 06:00:28;;;;;;;5.45;2.88;;;;;;;18.60;57.87;100083.78;10157960;29;20040;-72
2023/07/19 06:05:31;;;;;;;8.07;4.25;;;;;;;18.71;57.69;100088.78;10150633;29;20056;-72
2023/07/19 06:10:34;;;;;;;5.80;3.90;;;;;;;18.50;56.44;100085.91;10154023;29;20055;-73
2023/07/19 06:15:38;;;;;;;7.93;4.75;;;;;;;18.48;56.01;100083.34;10153625;29;20118;-73
2023/07/19 06:20:41;;;;;;;6.90;4.45;;;;;;;18.46;55.37;100077.28;10154341;29;20072;-72
2023/07/19 06:25:46;;;;;;;8.70;4.13;;;;;;;18.49;55.14;100085.06;10157817;29;20044;-73
2023/07/19 06:30:50;;;;;;;7.10;4.68;;;;;;;18.78;54.13;100081.59;10148109;29;20039;-72
2023/07/19 06:35:53;;;;;;;10.55;5.68;;;;;;;18.83;53.94;100082.91;10148458;29;20040;-73
2023/07/19 06:41:02;;;;;;;8.77;4.47;;;;;;;18.68;53.67;100083.72;10149941;29;20044;-73
2023/07/19 06:46:06;;;;;;;12.05;5.30;;;;;;;18.66;53.37;100077.59;10149979;29;20060;-73
2023/07/19 06:51:13;;;;;;;9.38;5.03;;;;;;;18.90;53.04;100078.44;10153356;29;20043;-72
2023/07/19 06:56:15;;;;;;;8.10;4.55;;;;;;;19.12;52.51;100080.22;10153660;29;20464;-72
2023/07/19 07:01:21;;;;;;;7.63;3.88;;;;;;;18.93;53.68;100088.94;10143572;29;20052;-72
2023/07/19 07:06:24;;;;;;;6.50;4.03;;;;;;;18.75;53.70;100086.53;10148648;29;20048;-73
2023/07/19 07:11:27;;;;;;;6.97;3.88;;;;;;;19.39;52.74;100078.72;10150599;29;20048;-73
2023/07/19 07:16:31;;;;;;;5.40;2.88;;;;;;;19.86;50.91;100090.22;10149374;29;20051;-72
2023/07/19 07:21:34;;;;;;;11.13;4.00;;;;;;;19.68;50.63;100094.19;10153748;29;20126;-72
2023/07/19 07:26:37;;;;;;;6.63;3.38;;;;;;;19.75;50.07;100094.28;10146210;29;20052;-73
2023/07/19 07:31:41;;;;;;;7.85;3.60;;;;;;;20.98;48.38;100084.09;10143863;29;20047;-73
2023/07/19 07:36:44;;;;;;;6.68;3.33;;;;;;;20.84;48.27;100099.53;10153886;29;20045;-73
2023/07/19 07:41:47;;;;;;;5.32;2.72;;;;;;;21.41;47.39;100092.16;10150359;29;20074;-73
2023/07/19 07:46:51;;;;;;;4.10;2.85;;;;;;;22.15;46.96;100093.28;10151305;29;20085;-74
2023/07/19 07:51:54;;;;;;;8.57;3.10;;;;;;;23.25;43.74;100093.72;10149902;29;20464;-74
2023/07/19 07:56:57;;;;;;;6.90;3.90;;;;;;;23.03;44.38;100093.94;10150167;29;20156;-74
2023/07/19 08:02:01;;;;;;;5.10;3.20;;;;;;;23.04;43.91;100092.03;10155034;29;20409;-74
2023/07/19 08:07:08;;;;;;;5.28;2.75;;;;;;;22.25;45.86;100097.28;10151691;29;20076;-74
2023/07/19 08:12:10;;;;;;;7.20;2.83;;;;;;;21.87;46.56;100095.09;10150907;29;20047;-74
2023/07/19 08:17:15;;;;;;;8.80;3.42;;;;;;;21.44;47.46;100087.09;10136803;29;20522;-74
2023/07/19 08:22:25;;;;;;;7.38;3.00;;;;;;;21.41;47.85;100089.41;10149800;29;20100;-74
2023/07/19 08:27:28;;;;;;;4.85;3.22;;;;;;;21.54;47.07;100084.00;10161904;29;20048;-74
2023/07/19 08:32:33;;;;;;;7.00;3.38;;;;;;;21.35;47.84;100080.16;10163264;29;20044;-74
2023/07/19 08:37:36;;;;;;;7.13;3.03;;;;;;;22.68;46.54;100079.66;10161221;29;20091;-74
2023/07/19 08:42:40;;;;;;;7.38;3.10;;;;;;;22.23;46.70;100087.63;10158485;29;20036;-73
2023/07/19 08:47:45;;;;;;;5.88;2.15;;;;;;;23.19;44.02;100082.56;10158264;29;20112;-74
2023/07/19 08:52:48;;;;;;;11.25;2.53;;;;;;;21.84;44.72;100084.56;10156868;29;20511;-74
2023/07/19 08:57:52;;;;;;;4.95;2.25;;;;;;;22.07;44.10;100077.91;10161016;29;20111;-73
2023/07/19 09:02:56;;;;;;;6.72;2.08;;;;;;;21.89;44.41;100082.06;10155777;29;20045;-74
2023/07/19 09:08:00;;;;;;;8.43;2.30;;;;;;;22.76;43.89;100076.69;10150252;29;20496;-74
2023/07/19 09:13:05;;;;;;;8.25;3.25;;;;;;;22.21;45.33;100074.13;10157736;29;20049;-74
2023/07/19 09:18:11;;;;;;;5.13;3.38;;;;;;;22.17;45.61;100072.03;10154131;29;20060;-74
2023/07/19 09:23:16;;;;;;;2.65;2.00;;;;;;;21.60;45.30;100066.78;10159613;29;20072;-74
2023/07/19 09:28:21;;;;;;;7.45;2.22;;;;;;;21.81;45.77;100065.84;10153186;29;20385;-73
2023/07/19 09:33:27;;;;;;;5.10;2.08;;;;;;;22.02;44.84;100066.72;10139844;29;20085;-74
2023/07/19 09:38:30;;;;;;;4.43;2.28;;;;;;;21.82;45.15;100064.78;10158610;29;20063;-73
2023/07/19 09:43:34;;;;;;;6.72;2.83;;;;;;;22.08;44.96;100068.66;10157421;29;20037;-74
2023/07/19 09:48:39;;;;;;;7.82;2.80;;;;;;;22.02;45.61;100064.00;10156540;29;20048;-74
2023/07/19 09:53:44;;;;;;;1.75;1.40;;;;;;;22.04;44.51;100056.44;10149278;29;20489;-74
2023/07/19 09:58:47;;;;;;;5.38;1.88;;;;;;;22.54;43.89;100057.78;10155208;29;20048;-74
2023/07/19 10:03:52;;;;;;;6.13;2.30;;;;;;;23.94;41.80;100046.41;10151419;29;20111;-73
2023/07/19 10:09:36;;;;;;;4.78;2.15;;;;;;;22.64;44.14;100057.34;10155642;29;20119;-74
2023/07/19 10:14:39;;;;;;;6.43;2.92;;;;;;;24.21;42.02;100049.81;10152320;29;20093;-74
2023/07/19 10:19:57;;;;;;;8.40;3.10;;;;;;;23.82;42.07;100048.19;10149155;29;20126;-74
2023/07/19 10:25:07;;;;;;;8.38;3.50;;;;;;;23.97;43.42;100043.25;10143567;29;20048;-74
2023/07/19 10:30:11;;;;;;;4.18;2.42;;;;;;;24.21;42.27;100032.50;10153452;29;20035;-73
2023/07/19 10:35:33;;;;;;;4.03;1.90;;;;;;;24.22;40.66;100032.31;10145068;29;20076;-73
2023/07/19 10:40:36;;;;;;;4.22;1.73;;;;;;;23.36;42.24;100033.59;10153126;29;20389;-73
2023/07/19 10:45:40;;;;;;;3.67;1.63;;;;;;;23.10;42.42;100041.91;10147648;29;20052;-74
2023/07/19 10:50:46;;;;;;;2.80;1.75;;;;;;;23.04;43.13;100042.72;10142191;29;20051;-74
2023/07/19 10:55:52;;;;;;;3.92;2.08;;;;;;;22.95;43.73;100033.91;10149649;29;20658;-73
2023/07/19 11:00:56;;;;;;;2.78;1.45;;;;;;;23.06;42.50;100027.78;10146899;29;20115;-73
2023/07/19 11:06:01;;;;;;;3.55;2.03;;;;;;;23.63;41.56;100037.06;10143039;29;20054;-74
2023/07/19 11:11:04;;;;;;;4.97;1.88;;;;;;;22.65;42.59;100037.13;10150614;29;20048;-73
2023/07/19 11:16:08;;;;;;;3.85;1.50;;;;;;;22.54;43.08;100024.94;10155301;29;20040;-74
2023/07/19 11:21:12;;;;;;;5.78;1.70;;;;;;;22.78;43.72;100036.28;10152647;29;20143;-74
2023/07/19 11:26:15;;;;;;;2.45;1.58;;;;;;;23.09;42.69;100016.41;10144734;29;20040;-74
2023/07/19 11:31:31;;;;;;;4.78;1.48;;;;;;;22.52;42.83;100020.72;10146144;29;20385;-74
2023/07/19 11:36:39;;;;;;;4.97;1.75;;;;;;;22.60;43.92;100019.66;10143979;29;20492;-73
2023/07/19 11:41:43;;;;;;;2.42;1.70;;;;;;;22.66;43.03;100029.78;10144483;29;20059;-74
2023/07/19 11:46:47;;;;;;;3.42;1.55;;;;;;;23.44;41.57;100016.91;10144981;29;20523;-74
2023/07/19 11:51:51;;;;;;;6.05;1.92;;;;;;;25.13;40.17;99999.81;10157064;29;20040;-74
2023/07/19 11:56:54;;;;;;;4.85;1.95;;;;;;;24.79;40.57;100007.53;10156559;29;20059;-74
2023/07/19 12:01:59;;;;;;;2.45;1.52;;;;;;;24.17;41.15;100014.84;10155233;29;20056;-74
2023/07/19 12:07:04;;;;;;;2.85;1.42;;;;;;;24.14;40.62;100007.88;10159294;29;20504;-74
2023/07/19 12:12:09;;;;;;;4.95;1.98;;;;;;;23.17;42.75;100004.38;10159146;29;20108;-74
2023/07/19 12:17:12;;;;;;;3.78;1.50;;;;;;;22.60;42.95;100000.50;10160030;29;20123;-74
2023/07/19 12:22:16;;;;;;;2.75;1.48;;;;;;;22.47;44.22;100006.84;10156535;29;20059;-74
2023/07/19 12:27:19;;;;;;;6.40;2.10;;;;;;;22.82;44.06;100009.28;10158330;29;20519;-74
2023/07/19 12:32:22;;;;;;;4.85;1.50;;;;;;;22.61;44.05;100003.03;10159586;29;20055;-73
2023/07/19 12:37:26;;;;;;;5.57;1.83;;;;;;;23.68;42.15;99992.56;10157204;29;20058;-73
2023/07/19 12:42:29;;;;;;;4.32;1.60;;;;;;;24.24;41.46;99979.94;10160772;29;20496;-74
2023/07/19 12:47:32;;;;;;;5.40;1.90;;;;;;;24.76;41.21;99986.00;10164574;29;20051;-74
2023/07/19 12:52:39;;;;;;;3.25;1.60;;;;;;;25.86;38.67;99963.06;10157025;29;20075;-74
2023/07/19 12:57:54;;;;;;;5.72;1.50;;;;;;;25.87;38.97;99967.50;10149180;29;20454;-73
2023/07/19 13:02:57;;;;;;;3.00;1.50;;;;;;;25.13;40.02;99977.81;10155398;29;20056;-73
2023/07/19 13:08:01;;;;;;;3.05;1.60;;;;;;;24.15;42.20;99971.16;10153622;29;20051;-74
2023/07/19 13:13:04;;;;;;;3.25;1.70;;;;;;;24.10;42.17;99969.06;10155515;29;20087;-74
2023/07/19 13:18:07;;;;;;;2.80;1.50;;;;;;;23.26;42.92;99964.75;10154054;29;20144;-73
2023/07/19 13:23:16;;;;;;;7.15;1.67;;;;;;;23.01;43.11;99970.09;10152930;29;20115;-73
2023/07/19 13:28:19;;;;;;;3.03;1.83;;;;;;;22.95;43.65;99962.72;10154413;29;20135;-74
2023/07/19 13:33:24;;;;;;;3.97;1.90;;;;;;;22.73;43.80;99959.41;10162800;29;20039;-73
2023/07/19 13:38:29;;;;;;;2.83;1.63;;;;;;;22.98;44.08;99956.81;10159974;29;20044;-74
2023/07/19 13:43:38;;;;;;;3.60;1.70;;;;;;;22.69;44.88;99949.97;10149330;29;20042;-73
2023/07/19 13:48:41;;;;;;;4.45;1.80;;;;;;;24.25;42.70;99955.03;10152206;29;20095;-74
2023/07/19 13:53:45;;;;;;;4.32;1.80;;;;;;;24.86;40.80;99944.28;10157872;29;20051;-73
2023/07/19 13:58:48;;;;;;;3.30;2.03;;;;;;;23.52;42.19;99947.31;10154540;29;20072;-74
2023/07/19 14:03:51;;;;;;;3.42;2.08;;;;;;;23.41;42.75;99942.53;10154355;29;20059;-74
2023/07/19 14:08:55;;;;;;;4.38;1.63;;;;;;;26.44;39.42;99923.81;10145167;29;20048;-74
2023/07/19 14:13:58;;;;;;;4.85;1.77;;;;;;;27.49;36.90;99927.41;10157865;29;20047;-74
2023/07/19 14:19:01;;;;;;;3.00;1.60;;;;;;;25.95;38.51;99936.91;10160566;29;20059;-74
2023/07/19 14:24:06;;;;;;;4.60;2.35;;;;;;;25.19;40.62;99931.00;10153553;29;20052;-74
2023/07/19 14:29:09;;;;;;;3.90;1.90;;;;;;;24.27;41.61;99941.06;10149227;29;20048;-73
2023/07/19 14:34:12;;;;;;;5.82;2.00;;;;;;;23.90;42.59;99926.41;10157125;29;20408;-74
2023/07/19 14:39:16;;;;;;;3.28;2.22;;;;;;;22.94;43.06;99930.91;10154989;29;20120;-73
2023/07/19 14:44:19;;;;;;;1.88;1.52;;;;;;;23.57;41.59;99932.94;10153143;29;20047;-74
2023/07/19 14:49:22;;;;;;;5.38;1.85;;;;;;;24.04;41.11;99917.84;10160556;29;20048;-74
2023/07/19 14:54:26;;;;;;;6.25;1.85;;;;;;;24.37;39.69;99919.44;10153179;29;20037;-73
2023/07/19 14:59:29;;;;;;;3.58;1.80;;;;;;;22.90;42.84;99918.69;10154697;29;20048;-74
2023/07/19 15:04:32;;;;;;;1.80;1.45;;;;;;;23.34;43.18;99908.81;10153998;29;20047;-73
2023/07/19 15:09:37;;;;;;;6.32;1.80;;;;;;;23.21;43.09;99912.50;10151341;29;20040;-73
2023/07/19 15:14:39;;;;;;;4.30;1.52;;;;;;;23.50;42.48;99913.78;10151588;29;20380;-73
2023/07/19 15:19:42;;;;;;;2.15;1.20;;;;;;;24.05;41.72;99903.09;10137442;29;20051;-73
2023/07/19 15:24:46;;;;;;;1.63;1.48;;;;;;;24.67;40.47;99897.59;10150899;29;20043;-73
2023/07/19 15:29:49;;;;;;;2.20;1.60;;;;;;;23.80;41.49;99904.97;10149162;29;20068;-73
2023/07/19 15:34:53;;;;;;;2.83;1.48;;;;;;;24.19;43.04;99919.41;10152132;29;20068;-74
2023/07/19 15:39:57;;;;;;;2.70;1.67;;;;;;;24.68;43.65;99924.00;10153401;29;20135;-73
2023/07/19 15:45:00;;;;;;;3.38;1.35;;;;;;;24.19;45.03;99923.00;10142777;29;20139;-74
2023/07/19 15:50:04;;;;;;;3.83;1.50;;;;;;;23.66;45.47;99924.22;10152730;29;20063;-74
2023/07/19 15:55:09;;;;;;;3.35;1.60;;;;;;;23.43;46.74;99933.03;10148955;29;20602;-73
2023/07/19 16:00:13;;;;;;;2.50;1.70;;;;;;;22.94;47.61;99936.41;10150654;29;20044;-73
2023/07/19 16:05:16;;;;;;;3.60;1.58;;;;;;;22.83;47.63;99935.16;10154669;29;20041;-73
2023/07/19 16:10:21;;;;;;;2.45;1.52;;;;;;;22.71;47.82;99934.16;10150318;29;20044;-74
2023/07/19 16:15:24;;;;;;;4.05;2.10;;;;;;;22.34;48.64;99953.75;10139058;29;20034;-73
2023/07/19 16:20:27;;;;;;;3.53;1.90;;;;;;;21.49;49.59;99947.16;10146074;29;20056;-75
2023/07/19 16:25:32;;;;;;;5.30;2.10;;;;;;;21.36;50.58;99958.06;10149737;29;20048;-75
2023/07/19 16:30:35;;;;;;;7.47;1.80;;;;;;;21.00;55.38;99965.44;10157768;29;20439;-75
2023/07/19 16:35:38;;;;;;;5.68;2.17;;;;;;;20.93;57.79;99970.03;10153824;29;20044;-76
2023/07/19 16:40:42;;;;;;;4.43;2.22;;;;;;;20.82;57.49;99975.25;10154937;29;20397;-75
2023/07/19 16:45:45;;;;;;;7.35;2.58;;;;;;;20.16;60.84;99975.56;10164742;29;20059;-76
2023/07/19 16:50:48;;;;;;;7.50;3.30;;;;;;;19.21;69.46;99963.91;10166820;29;20071;-75
2023/07/19 16:55:53;;;;;;;6.20;3.22;;;;;;;18.39;70.95;99969.44;10160673;29;20061;-76
2023/07/19 17:00:56;;;;;;;6.85;4.03;;;;;;;18.07;74.47;99963.25;10157274;29;20048;-75
2023/07/19 17:05:58;;;;;;;7.18;4.75;;;;;;;18.30;75.60;99969.50;10155366;29;20071;-75
2023/07/19 17:11:03;;;;;;;5.10;3.55;;;;;;;18.67;75.60;99966.91;10162814;29;20119;-75
2023/07/19 17:16:06;;;;;;;6.93;3.55;;;;;;;18.94;72.36;99962.72;10169542;29;20543;-75
2023/07/19 17:21:09;;;;;;;6.03;3.10;;;;;;;20.66;74.24;99965.47;10169953;29;20040;-75
2023/07/19 17:26:14;;;;;;;5.13;2.70;;;;;;;21.10;69.91;99969.72;10164570;29;20044;-75
2023/07/19 17:31:17;;;;;;;4.43;2.17;;;;;;;20.82;64.45;99967.06;10162713;29;20132;-75
2023/07/19 17:36:20;;;;;;;3.55;2.33;;;;;;;22.84;56.57;99964.22;10167332;29;20203;-75
2023/07/19 17:41:24;;;;;;;3.40;2.20;;;;;;;22.69;52.80;99961.75;10166234;29;20047;-75
2023/07/19 17:46:27;;;;;;;7.60;2.15;;;;;;;21.05;55.33;99967.59;10156946;29;20048;-74
2023/07/19 17:51:30;;;;;;;5.60;1.75;;;;;;;20.90;56.20;99977.78;10147802;29;20049;-75
2023/07/19 17:56:34;;;;;;;4.57;1.88;;;;;;;21.21;56.09;99974.63;10149746;29;20072;-75
2023/07/19 18:01:37;;;;;;;4.68;1.90;;;;;;;20.84;57.47;99973.13;10159699;29;20072;-75
2023/07/19 18:06:41;;;;;;;2.22;1.73;;;;;;;20.41;56.90;99979.59;10162498;29;20045;-74
2023/07/19 18:11:45;;;;;;;5.22;2.13;;;;;;;20.38;57.14;99985.44;10158471;29;20416;-74
2023/07/19 18:16:48;;;;;;;3.28;1.67;;;;;;;20.41;58.50;99990.50;10148412;29;20140;-75
2023/07/19 18:21:51;;;;;;;4.53;2.50;;;;;;;20.09;57.66;100006.34;10152429;29;20067;-75
2023/07/19 18:27:07;;;;;;;3.55;2.10;;;;;;;20.09;58.06;100014.53;10163174;29;20056;-75
2023/07/19 18:32:10;;;;;;;2.55;1.98;;;;;;;19.83;58.53;100011.56;10160318;29;20476;-75
2023/07/19 18:37:13;;;;;;;2.55;1.80;;;;;;;19.77;57.84;100012.31;10159243;29;20054;-75
2023/07/19 18:42:17;;;;;;;4.13;1.90;;;;;;;19.15;59.24;100019.09;10150371;29;20503;-75
2023/07/19 18:47:20;;;;;;;2.53;1.45;;;;;;;19.73;58.18;100025.50;10156149;29;20096;-74
2023/07/19 18:52:23;;;;;;;2.30;1.52;;;;;;;19.44;58.46;100024.50;10153777;29;20053;-74
2023/07/19 18:57:28;;;;;;;1.65;1.30;;;;;;;19.61;58.04;100025.16;10152313;29;20052;-75
2023/07/19 19:02:31;;;;;;;2.88;1.40;;;;;;;19.12;60.46;100033.09;10136655;29;20044;-75
2023/07/19 19:07:34;;;;;;;5.15;2.17;;;;;;;19.05;63.16;100045.75;10145238;29;20049;-76
2023/07/19 19:12:38;;;;;;;3.17;1.38;;;;;;;19.09;63.04;100047.06;10145164;29;20040;-75
2023/07/19 19:17:41;;;;;;;2.40;1.40;;;;;;;18.93;61.92;100062.56;10153197;29;20665;-75
2023/07/19 19:22:45;;;;;;;3.08;1.40;;;;;;;18.96;63.20;100064.06;10143251;29;20472;-74
2023/07/19 19:27:49;;;;;;;2.78;1.30;;;;;;;18.75;64.52;100064.75;10145342;29;20044;-74
2023/07/19 19:32:52;;;;;;;2.00;1.63;;;;;;;18.74;64.35;100066.63;10151387;29;20067;-74
2023/07/19 19:37:55;;;;;;;1.55;1.27;;;;;;;18.49;64.90;100067.91;10161048;29;20056;-74
2023/07/19 19:42:59;;;;;;;4.60;2.17;;;;;;;18.52;65.11;100068.38;10155220;29;20045;-74
2023/07/19 19:48:02;;;;;;;4.68;1.50;;;;;;;18.53;64.35;100075.50;10160205;29;20058;-75
2023/07/19 19:53:05;;;;;;;1.95;1.48;;;;;;;18.56;64.54;100066.13;10157388;29;20049;-74
2023/07/19 19:58:15;;;;;;;3.05;1.60;;;;;;;18.68;64.46;100070.13;10158944;29;20068;-73
2023/07/19 20:03:18;;;;;;;1.48;1.38;;;;;;;18.73;64.63;100072.25;10160713;29;20036;-73
2023/07/19 20:08:24;;;;;;;2.05;1.10;;;;;;;18.69;63.99;100077.22;10160345;29;20039;-74
2023/07/19 20:13:28;;;;;;;1.58;1.45;;;;;;;18.62;63.95;100083.59;10164784;29;20048;-74
2023/07/19 20:18:31;;;;;;;1.88;1.30;;;;;;;18.47;64.54;100089.84;10163994;29;20048;-76
2023/07/19 20:23:37;;;;;;;3.47;2.00;;;;;;;18.46;64.34;100084.59;10161494;29;20477;-75
2023/07/19 20:28:42;;;;;;;3.60;1.50;;;;;;;18.09;65.19;100088.94;10150905;29;20045;-74
2023/07/19 20:33:45;;;;;;;1.50;1.30;;;;;;;18.05;65.85;100082.19;10157529;29;20048;-74
2023/07/19 20:39:08;;;;;;;2.40;1.27;;;;;;;18.13;65.97;100079.44;10157719;29;20044;-75
2023/07/19 20:44:16;;;;;;;2.13;1.40;;;;;;;18.09;66.04;100072.63;10152631;29;20059;-74
2023/07/19 20:49:23;;;;;;;2.83;1.70;;;;;;;18.07;66.43;100077.41;10152604;29;20040;-74
2023/07/19 20:54:26;;;;;;;4.25;1.65;;;;;;;17.57;67.98;100082.25;10147032;29;20182;-75
2023/07/19 20:59:30;;;;;;;4.53;1.40;;;;;;;17.85;68.14;100077.19;10147400;29;20044;-74
2023/07/19 21:04:33;;;;;;;2.83;1.50;;;;;;;17.97;67.35;100080.38;10155976;29;20037;-74
2023/07/19 21:09:36;;;;;;;2.33;1.73;;;;;;;17.70;67.60;100087.97;10151861;29;20047;-75
2023/07/19 21:14:40;;;;;;;3.58;2.13;;;;;;;17.76;67.61;100099.16;10158385;29;20135;-75
2023/07/19 21:19:43;;;;;;;6.45;2.50;;;;;;;17.67;68.03;100098.34;10154354;29;20055;-76
2023/07/19 21:24:46;;;;;;;2.75;2.08;;;;;;;17.82;67.66;100093.84;10150798;29;20732;-73
2023/07/19 21:30:11;;;;;;;2.90;2.03;;;;;;;17.95;67.70;100090.53;10158329;29;20075;-74
2023/07/19 21:35:14;;;;;;;3.28;1.85;;;;;;;18.02;67.24;100090.69;10152218;29;20045;-74
2023/07/19 21:40:18;;;;;;;2.22;1.70;;;;;;;18.02;66.87;100098.84;10154166;29;20044;-74
2023/07/19 21:45:22;;;;;;;2.47;1.70;;;;;;;17.78;67.00;100099.81;10158123;29;20048;-75
2023/07/19 21:50:25;;;;;;;4.22;1.92;;;;;;;17.90;66.94;100092.94;10157048;29;20051;-75
2023/07/19 21:55:28;;;;;;;3.17;1.92;;;;;;;17.90;65.78;100099.22;10154434;29;20420;-75
2023/07/19 22:00:42;;;;;;;3.28;1.80;;;;;;;17.53;65.81;100110.81;10151857;29;20080;-74
2023/07/19 22:05:45;;;;;;;2.50;1.70;;;;;;;17.47;66.04;100109.66;10150872;29;20040;-74
2023/07/19 22:10:49;;;;;;;3.55;1.50;;;;;;;17.60;65.61;100106.34;10149162;29;20148;-74
2023/07/19 22:15:53;;;;;;;2.53;1.52;;;;;;;17.42;66.15;100113.91;10152011;29;20121;-73
2023/07/19 22:20:58;;;;;;;2.00;1.80;;;;;;;17.57;66.29;100111.28;10152740;29;20055;-74
2023/07/19 22:26:17;;;;;;;3.10;1.73;;;;;;;17.50;66.33;100113.88;10143791;29;20511;-74
2023/07/19 22:31:21;;;;;;;2.10;1.60;;;;;;;17.55;66.58;100107.91;10147063;29;20100;-74
2023/07/19 22:36:25;;;;;;;2.38;1.70;;;;;;;17.30;68.22;100123.44;10139712;29;20048;-75
2023/07/19 22:41:28;;;;;;;1.50;1.40;;;;;;;17.31;68.46;100117.84;10150605;29;20049;-74
2023/07/19 22:46:32;;;;;;;3.45;1.40;;;;;;;17.40;66.53;100111.34;10141056;29;20057;-75
2023/07/19 22:51:36;;;;;;;2.35;1.77;;;;;;;17.56;66.32;100117.75;10141472;29;20492;-75
2023/07/19 22:56:39;;;;;;;4.45;1.65;;;;;;;17.61;65.57;100107.22;10149318;29;20121;-75
2023/07/19 23:01:43;;;;;;;5.38;1.60;;;;;;;17.40;65.21;100108.63;10147620;29;20086;-75
2023/07/19 23:06:46;;;;;;;3.00;1.85;;;;;;;17.32;66.12;100122.25;10154823;29;20548;-75
2023/07/19 23:11:49;;;;;;;3.63;1.55;;;;;;;17.32;65.97;100113.25;10151946;29;20100;-76
2023/07/19 23:16:54;;;;;;;1.92;1.63;;;;;;;17.27;65.87;100119.19;10151098;29;20503;-73
2023/07/19 23:21:57;;;;;;;1.73;1.30;;;;;;;17.21;66.52;100117.19;10149340;29;20096;-74
2023/07/19 23:27:01;;;;;;;1.60;1.30;;;;;;;17.46;65.71;100107.94;10154389;29;20087;-75
2023/07/19 23:32:06;;;;;;;1.70;1.60;;;;;;;17.37;65.36;100117.13;10150972;29;20052;-74